createdAt,value
2019-06-08T00:00:02.088Z,64.17
2019-06-08T00:02:32.756Z,65.03
2019-06-08T00:05:04.018Z,64.89
2019-06-08T00:07:34.778Z,64.56
2019-06-08T00:10:08.974Z,65.17
2019-06-08T00:12:39.905Z,64.88
2019-06-08T00:15:11.234Z,64.53
2019-06-08T00:17:41.801Z,65.24
2019-06-08T00:20:13.497Z,65.24
2019-06-08T00:22:44.348Z,66.17
2019-06-08T00:25:15.825Z,66.36
2019-06-08T00:27:46.540Z,67.18
2019-06-08T00:30:17.303Z,66.51
2019-06-08T00:32:47.975Z,67.12
2019-06-08T00:35:18.734Z,67.66
2019-06-08T00:37:49.403Z,67.72
2019-06-08T00:40:21.103Z,66.98
2019-06-08T00:42:51.912Z,66.48
2019-06-08T00:45:23.582Z,65.17
2019-06-08T00:47:54.418Z,63.89
2019-06-08T00:50:26.096Z,64.73
2019-06-08T00:52:56.793Z,64.90
2019-06-08T00:55:27.444Z,65.02
2019-06-08T00:57:58.275Z,64.68
2019-06-08T01:00:28.928Z,66.27
2019-06-08T01:02:59.632Z,66.62
2019-06-08T01:05:31.379Z,66.98
2019-06-08T01:08:02.413Z,67.47
2019-06-08T01:10:33.175Z,67.50
2019-06-08T01:13:03.912Z,68.39
2019-06-08T01:15:34.637Z,68.16
2019-06-08T01:18:05.476Z,68.15
2019-06-08T01:20:36.152Z,68.29
2019-06-08T01:23:06.837Z,68.81
2019-06-08T01:25:38.087Z,68.67
2019-06-08T01:28:08.841Z,68.75
2019-06-08T01:30:39.556Z,68.64
2019-06-08T01:33:10.268Z,68.49
2019-06-08T01:35:40.990Z,68.66
2019-06-08T01:38:11.667Z,68.70
2019-06-08T01:40:42.349Z,68.76
2019-06-08T01:43:12.918Z,68.53
2019-06-08T01:45:43.600Z,68.33
2019-06-08T01:48:19.842Z,68.58
2019-06-08T01:50:46.709Z,69.00
2019-06-08T01:53:17.451Z,68.67
2019-06-08T01:55:48.035Z,68.70
2019-06-08T01:58:18.700Z,69.09
2019-06-08T02:00:49.385Z,69.05
2019-06-08T02:03:20.198Z,68.87
2019-06-08T02:05:50.878Z,68.54
2019-06-08T02:08:21.607Z,68.70
2019-06-08T02:10:52.241Z,68.72
2019-06-08T02:13:22.961Z,67.78
2019-06-08T02:15:53.637Z,67.30
2019-06-08T02:18:37.732Z,66.53
2019-06-08T02:20:56.738Z,66.07
2019-06-08T02:23:28.903Z,66.37
2019-06-08T02:26:00.214Z,66.30
2019-06-08T02:28:33.628Z,67.12
2019-06-08T02:31:07.156Z,68.04
2019-06-08T02:33:38.392Z,68.42
2019-06-08T02:36:10.775Z,68.42
2019-06-08T02:38:43.106Z,69.13
2019-06-08T02:41:24.190Z,69.28
2019-06-08T02:43:55.446Z,69.06
2019-06-08T02:46:29.014Z,69.39
2019-06-08T02:49:10.791Z,70.23
2019-06-08T02:51:43.107Z,70.26
2019-06-08T02:54:15.592Z,70.00
2019-06-08T02:56:49.283Z,69.72
2019-06-08T02:59:22.898Z,69.89
2019-06-08T03:01:55.937Z,68.93
2019-06-08T03:04:30.082Z,68.09
2019-06-08T03:07:04.343Z,67.57
2019-06-08T03:09:38.757Z,66.66
2019-06-08T03:12:10.046Z,66.09
2019-06-08T03:14:44.674Z,65.88
2019-06-08T03:17:17.053Z,66.54
2019-06-08T03:19:58.198Z,65.70
2019-06-08T03:22:41.910Z,65.43
2019-06-08T03:25:12.323Z,64.95
2019-06-08T03:27:43.549Z,65.13
2019-06-08T03:30:17.125Z,65.55
2019-06-08T03:32:55.764Z,65.20
2019-06-08T03:35:21.766Z,65.59
2019-06-08T03:37:53.784Z,65.97
2019-06-08T03:40:25.800Z,65.43
2019-06-08T03:42:59.789Z,66.86
2019-06-08T03:45:31.398Z,66.55
2019-06-08T03:48:02.083Z,66.93
2019-06-08T03:50:33.079Z,66.86
2019-06-08T03:53:03.922Z,66.07
2019-06-08T03:55:38.123Z,65.36
2019-06-08T03:58:10.563Z,65.60
2019-06-08T04:00:42.388Z,65.36
2019-06-08T04:03:13.355Z,65.76
2019-06-08T04:05:44.882Z,65.29
2019-06-08T04:08:16.459Z,65.23
2019-06-08T04:10:47.183Z,64.86
2019-06-08T04:13:17.985Z,65.49
2019-06-08T04:15:50.282Z,65.76
2019-06-08T04:18:21.075Z,65.40
2019-06-08T04:20:51.973Z,65.51
2019-06-08T04:23:22.999Z,66.14
2019-06-08T04:25:53.863Z,65.73
2019-06-08T04:28:24.777Z,65.90
2019-06-08T04:30:55.638Z,65.40
2019-06-08T04:33:26.291Z,65.31
2019-06-08T04:35:57.400Z,65.04
2019-06-08T04:38:28.110Z,65.29
2019-06-08T04:40:58.960Z,66.50
2019-06-08T04:43:29.803Z,64.60
2019-06-08T04:46:00.506Z,63.60
2019-06-08T04:48:31.376Z,64.64
2019-06-08T04:51:03.328Z,63.29
2019-06-08T04:53:33.988Z,63.45
2019-06-08T04:56:04.656Z,63.61
2019-06-08T04:58:35.347Z,63.11
2019-06-08T05:01:06.137Z,62.70
2019-06-08T05:03:39.276Z,62.72
2019-06-08T05:06:10.278Z,61.59
2019-06-08T05:08:41.229Z,61.92
2019-06-08T05:11:12.275Z,61.46
2019-06-08T05:13:43.384Z,62.45
2019-06-08T05:16:14.237Z,61.99
2019-06-08T05:18:45.299Z,61.65
2019-06-08T05:21:16.296Z,62.52
2019-06-08T05:23:49.369Z,61.71
2019-06-08T05:26:20.406Z,61.48
2019-06-08T05:28:52.142Z,60.28
2019-06-08T05:31:23.291Z,54.57
2019-06-08T05:33:54.163Z,50.70
2019-06-08T05:36:25.128Z,48.56
2019-06-08T05:38:55.832Z,47.41
2019-06-08T05:41:26.517Z,46.82
2019-06-08T05:43:57.559Z,44.72
2019-06-08T05:46:28.751Z,44.07
2019-06-08T05:49:00.135Z,42.54
2019-06-08T05:51:31.218Z,43.22
2019-06-08T05:54:03.119Z,43.30
2019-06-08T05:56:35.150Z,44.60
2019-06-08T05:59:05.838Z,43.59
2019-06-08T06:01:36.669Z,44.08
2019-06-08T06:04:07.469Z,42.18
2019-06-08T06:06:38.157Z,43.67
2019-06-08T06:09:09.356Z,41.50
2019-06-08T06:11:40.653Z,41.69
2019-06-08T06:14:11.800Z,42.51
2019-06-08T06:16:43.348Z,44.61
2019-06-08T06:19:14.216Z,48.06
2019-06-08T06:21:45.156Z,51.55
2019-06-08T06:24:15.883Z,54.39
2019-06-08T06:26:47.375Z,55.19
2019-06-08T06:29:18.555Z,56.18
2019-06-08T06:31:49.786Z,56.90
2019-06-08T06:34:20.558Z,58.10
2019-06-08T06:36:52.188Z,59.44
2019-06-08T06:39:24.870Z,60.89
2019-06-08T06:41:55.555Z,61.64
2019-06-08T06:44:27.037Z,62.00
2019-06-08T06:46:57.716Z,62.41
2019-06-08T06:49:28.577Z,62.40
2019-06-08T06:51:59.172Z,62.34
2019-06-08T06:54:31.042Z,61.23
2019-06-08T06:57:01.752Z,59.64
2019-06-08T06:59:32.455Z,59.84
2019-06-08T07:02:03.427Z,60.25
2019-06-08T07:04:35.405Z,60.41
2019-06-08T07:07:06.093Z,59.25
2019-06-08T07:09:36.773Z,55.18
2019-06-08T07:12:07.632Z,53.58
2019-06-08T07:14:38.304Z,50.32
2019-06-08T07:17:08.970Z,48.49
2019-06-08T07:19:41.095Z,47.87
2019-06-08T07:22:12.817Z,48.03
2019-06-08T07:24:43.553Z,50.68
2019-06-08T07:27:14.415Z,50.34
2019-06-08T07:29:47.083Z,51.90
2019-06-08T07:32:17.376Z,53.11
2019-06-08T07:34:49.902Z,55.55
2019-06-08T07:37:20.820Z,55.48
2019-06-08T07:39:51.699Z,55.48
2019-06-08T07:42:22.409Z,56.29
2019-06-08T07:44:53.320Z,58.35
2019-06-08T07:47:24.012Z,58.46
2019-06-08T07:49:55.613Z,56.88
2019-06-08T07:52:26.402Z,55.97
2019-06-08T07:54:58.612Z,55.20
2019-06-08T07:57:29.393Z,54.80
2019-06-08T08:00:00.239Z,54.14
2019-06-08T08:02:31.085Z,53.94
2019-06-08T08:05:01.773Z,54.65
2019-06-08T08:07:32.444Z,56.38
2019-06-08T08:10:04.839Z,57.07
2019-06-08T08:12:35.487Z,56.12
2019-06-08T08:15:09.731Z,52.65
2019-06-08T08:17:40.310Z,51.20
2019-06-08T08:20:11.710Z,49.47
2019-06-08T08:22:42.410Z,47.41
2019-06-08T08:25:13.470Z,47.55
2019-06-08T08:27:44.273Z,46.85
2019-06-08T08:30:17.329Z,46.46
2019-06-08T08:32:49.445Z,48.31
2019-06-08T08:35:20.226Z,48.10
2019-06-08T08:37:55.513Z,48.46
2019-06-08T08:40:23.768Z,46.30
2019-06-08T08:42:55.711Z,45.00
2019-06-08T08:45:28.001Z,43.93
2019-06-08T08:48:14.771Z,44.85
2019-06-08T08:50:31.048Z,43.39
2019-06-08T08:53:02.396Z,43.92
2019-06-08T08:55:33.199Z,41.85
2019-06-08T08:58:04.085Z,40.24
2019-06-08T09:00:34.818Z,39.71
2019-06-08T09:03:21.948Z,39.72
2019-06-08T09:05:38.297Z,40.77
2019-06-08T09:08:09.077Z,40.09
2019-06-08T09:10:39.735Z,40.16
2019-06-08T09:13:12.061Z,39.45
2019-06-08T09:15:43.090Z,40.16
2019-06-08T09:18:13.773Z,40.02
2019-06-08T09:20:44.457Z,40.26
2019-06-08T09:23:19.075Z,39.15
2019-06-08T09:25:48.368Z,38.85
2019-06-08T09:28:19.199Z,38.44
2019-06-08T09:30:49.894Z,39.36
2019-06-08T09:33:20.749Z,40.58
2019-06-08T09:35:52.986Z,40.51
2019-06-08T09:38:24.047Z,39.21
2019-06-08T09:40:54.932Z,37.50
2019-06-08T09:43:25.618Z,36.08
2019-06-08T09:45:58.754Z,36.22
2019-06-08T09:48:28.953Z,38.45
2019-06-08T09:51:02.237Z,38.75
2019-06-08T09:53:37.880Z,39.90
2019-06-08T09:56:06.605Z,38.80
2019-06-08T09:58:39.183Z,38.10
2019-06-08T10:01:12.231Z,38.63
2019-06-08T10:03:41.947Z,38.19
2019-06-08T10:06:13.406Z,38.04
2019-06-08T10:08:44.280Z,39.22
2019-06-08T10:11:14.947Z,39.09
2019-06-08T10:13:47.657Z,38.53
2019-06-08T10:16:18.664Z,37.39
2019-06-08T10:18:51.450Z,37.69
2019-06-08T10:21:21.721Z,37.55
2019-06-08T10:23:52.422Z,36.81
2019-06-08T10:26:23.020Z,38.76
2019-06-08T10:28:55.231Z,37.69
2019-06-08T10:31:38.317Z,36.42
2019-06-08T10:34:01.609Z,38.03
2019-06-08T10:36:30.678Z,37.38
2019-06-08T10:39:04.740Z,37.29
2019-06-08T10:41:34.911Z,38.21
2019-06-08T10:44:11.200Z,38.27
2019-06-08T10:46:40.536Z,38.25
2019-06-08T10:49:14.461Z,37.12
2019-06-08T10:51:43.045Z,36.60
2019-06-08T10:54:14.674Z,38.75
2019-06-08T10:56:45.340Z,39.55
2019-06-08T10:59:18.349Z,39.85
2019-06-08T11:01:48.718Z,39.25
2019-06-08T11:04:19.299Z,39.65
2019-06-08T11:06:50.020Z,40.37
2019-06-08T11:09:20.934Z,39.39
2019-06-08T11:11:52.017Z,39.94
2019-06-08T11:14:23.058Z,40.23
2019-06-08T11:16:53.848Z,39.38
2019-06-08T11:19:26.505Z,38.68
2019-06-08T11:21:57.977Z,37.89
2019-06-08T11:24:29.339Z,38.41
2019-06-08T11:27:01.240Z,37.85
2019-06-08T11:29:32.238Z,37.27
2019-06-08T11:32:04.189Z,37.62
2019-06-08T11:34:37.521Z,37.79
2019-06-08T11:37:11.540Z,37.17
2019-06-08T11:39:40.170Z,37.22
2019-06-08T11:42:12.953Z,37.92
2019-06-08T11:44:43.280Z,38.68
2019-06-08T11:47:13.958Z,39.98
2019-06-08T11:49:44.711Z,40.57
2019-06-08T11:52:15.457Z,40.77
2019-06-08T11:54:48.080Z,40.26
2019-06-08T11:57:18.928Z,41.24
2019-06-08T11:59:52.842Z,41.69
2019-06-08T12:02:23.578Z,41.67
2019-06-08T12:04:57.275Z,41.59
2019-06-08T12:07:30.041Z,41.51
2019-06-08T12:10:00.348Z,41.60
2019-06-08T12:12:31.015Z,42.71
2019-06-08T12:15:03.000Z,42.97
2019-06-08T12:17:34.703Z,43.47
2019-06-08T12:20:08.615Z,43.84
2019-06-08T12:22:40.257Z,43.91
2019-06-08T12:25:12.176Z,43.99
2019-06-08T12:27:43.187Z,43.99
2019-06-08T12:30:19.402Z,43.93
2019-06-08T12:32:47.948Z,43.22
2019-06-08T12:35:19.107Z,44.13
2019-06-08T12:37:51.574Z,43.87
2019-06-08T12:40:22.128Z,44.26
2019-06-08T12:42:53.148Z,44.11
2019-06-08T12:45:24.256Z,44.20
2019-06-08T12:47:55.192Z,42.59
2019-06-08T12:50:28.091Z,42.92
2019-06-08T12:52:58.491Z,41.75
2019-06-08T12:55:29.173Z,41.41
2019-06-08T12:58:00.040Z,41.57
2019-06-08T13:00:30.825Z,40.97
2019-06-08T13:03:02.602Z,41.42
2019-06-08T13:05:33.686Z,40.89
2019-06-08T13:08:04.424Z,40.32
2019-06-08T13:10:35.174Z,40.37
2019-06-08T13:13:08.048Z,40.16
2019-06-08T13:15:38.643Z,39.15
2019-06-08T13:18:10.602Z,39.71
2019-06-08T13:20:41.874Z,39.88
2019-06-08T13:23:13.309Z,39.18
2019-06-08T13:25:44.580Z,39.58
2019-06-08T13:28:19.386Z,39.58
2019-06-08T13:30:47.989Z,38.34
2019-06-08T13:33:18.749Z,38.68
2019-06-08T13:35:49.460Z,39.51
2019-06-08T13:38:22.978Z,38.10
2019-06-08T13:40:54.158Z,37.79
2019-06-08T13:43:24.815Z,36.29
2019-06-08T13:45:58.165Z,36.26
2019-06-08T13:48:28.722Z,36.30
2019-06-08T13:50:59.482Z,36.03
2019-06-08T13:53:31.855Z,35.06
2019-06-08T13:56:03.001Z,35.43
2019-06-08T13:58:33.869Z,35.08
2019-06-08T14:01:04.621Z,35.40
2019-06-08T14:03:35.639Z,34.48
2019-06-08T14:06:07.675Z,33.53
2019-06-08T14:08:38.808Z,31.35
2019-06-08T14:11:09.471Z,32.18
2019-06-08T14:13:40.773Z,32.63
2019-06-08T14:16:11.804Z,32.64
2019-06-08T14:18:42.622Z,31.51
2019-06-08T14:21:13.602Z,31.26
2019-06-08T14:23:44.340Z,30.69
2019-06-08T14:26:16.971Z,31.89
2019-06-08T14:28:50.355Z,30.37
2019-06-08T14:31:22.355Z,31.19
2019-06-08T14:33:55.191Z,30.65
2019-06-08T14:36:28.662Z,29.98
2019-06-08T14:39:02.371Z,30.78
2019-06-08T14:41:33.126Z,29.67
2019-06-08T14:44:04.026Z,29.33
2019-06-08T14:46:40.751Z,29.71
2019-06-08T14:49:09.875Z,30.94
2019-06-08T14:51:51.168Z,31.03
2019-06-08T14:54:26.403Z,30.74
2019-06-08T14:56:57.562Z,31.09
2019-06-08T14:59:30.118Z,31.39
2019-06-08T15:02:00.898Z,30.96
2019-06-08T15:04:36.356Z,30.69
2019-06-08T15:07:04.658Z,30.38
2019-06-08T15:09:37.573Z,31.07
2019-06-08T15:12:10.217Z,31.74
2019-06-08T15:14:41.693Z,30.30
2019-06-08T15:17:12.521Z,31.66
2019-06-08T15:19:43.402Z,29.76
2019-06-08T15:22:14.574Z,30.16
2019-06-08T15:24:47.828Z,29.24
2019-06-08T15:27:21.559Z,29.23
2019-06-08T15:29:51.449Z,28.30
2019-06-08T15:32:23.013Z,29.62
2019-06-08T15:34:57.643Z,27.89
2019-06-08T15:37:29.637Z,27.02
2019-06-08T15:40:01.046Z,25.88
2019-06-08T15:42:32.491Z,27.26
2019-06-08T15:45:09.204Z,27.45
2019-06-08T15:47:40.838Z,28.03
2019-06-08T15:50:11.908Z,28.60
2019-06-08T15:52:43.312Z,29.00
2019-06-08T15:55:14.889Z,29.93
2019-06-08T15:57:45.682Z,30.77
2019-06-08T16:00:18.489Z,30.51
2019-06-08T16:02:50.618Z,29.94
2019-06-08T16:05:21.426Z,29.57
2019-06-08T16:07:52.800Z,29.79
2019-06-08T16:10:26.192Z,30.92
2019-06-08T16:12:57.129Z,30.98
2019-06-08T16:15:28.829Z,30.45
2019-06-08T16:17:59.524Z,30.70
2019-06-08T16:20:31.466Z,30.18
2019-06-08T16:23:02.393Z,30.49
2019-06-08T16:25:36.718Z,30.96
2019-06-08T16:28:05.682Z,31.89
2019-06-08T16:30:36.371Z,31.10
2019-06-08T16:33:07.052Z,32.91
2019-06-08T16:35:37.774Z,31.89
2019-06-08T16:38:10.338Z,32.45
2019-06-08T16:40:41.084Z,32.13
2019-06-08T16:43:13.252Z,31.56
2019-06-08T16:45:44.021Z,32.19
2019-06-08T16:48:15.361Z,32.25
2019-06-08T16:50:46.121Z,33.08
2019-06-08T16:53:16.872Z,31.91
2019-06-08T16:55:48.344Z,32.15
2019-06-08T16:58:19.084Z,33.59
2019-06-08T17:00:51.283Z,32.92
2019-06-08T17:03:22.372Z,32.25
2019-06-08T17:05:55.032Z,32.17
2019-06-08T17:08:26.264Z,32.60
2019-06-08T17:10:57.009Z,32.80
2019-06-08T17:13:28.152Z,32.66
2019-06-08T17:15:59.546Z,32.52
2019-06-08T17:18:30.334Z,32.79
2019-06-08T17:21:01.524Z,32.44
2019-06-08T17:23:32.672Z,32.60
2019-06-08T17:26:04.124Z,33.01
2019-06-08T17:28:37.052Z,33.08
2019-06-08T17:31:08.732Z,33.72
2019-06-08T17:33:39.719Z,34.18
2019-06-08T17:36:10.431Z,34.06
2019-06-08T17:38:44.348Z,34.32
2019-06-08T17:41:15.711Z,33.40
2019-06-08T17:43:47.129Z,33.85
2019-06-08T17:46:18.452Z,34.19
2019-06-08T17:48:50.100Z,33.76
2019-06-08T17:51:21.721Z,33.54
2019-06-08T17:53:53.221Z,34.04
2019-06-08T17:56:24.688Z,33.63
2019-06-08T17:58:56.778Z,33.59
2019-06-08T18:01:28.339Z,33.97
2019-06-08T18:03:58.974Z,34.23
2019-06-08T18:06:31.969Z,34.43
2019-06-08T18:09:03.161Z,34.77
2019-06-08T18:11:38.258Z,35.53
2019-06-08T18:14:08.730Z,34.97
2019-06-08T18:16:42.159Z,35.60
2019-06-08T18:19:28.433Z,36.39
2019-06-08T18:22:04.076Z,36.77
2019-06-08T18:24:32.655Z,37.68
2019-06-08T18:27:04.975Z,37.57
2019-06-08T18:29:38.888Z,38.23
2019-06-08T18:32:10.032Z,38.56
2019-06-08T18:34:42.160Z,38.26
2019-06-08T18:37:13.645Z,39.50
2019-06-08T18:39:45.873Z,39.55
2019-06-08T18:42:17.625Z,39.55
2019-06-08T18:44:49.036Z,40.14
2019-06-08T18:47:19.970Z,40.14
2019-06-08T18:49:50.725Z,40.08
2019-06-08T18:52:21.671Z,39.15
2019-06-08T18:54:52.950Z,39.80
2019-06-08T18:57:23.830Z,39.96
2019-06-08T18:59:55.405Z,38.80
2019-06-08T19:02:31.781Z,39.50
2019-06-08T19:05:04.828Z,40.51
2019-06-08T19:07:36.893Z,40.97
2019-06-08T19:10:08.453Z,41.44
2019-06-08T19:12:41.424Z,41.88
2019-06-08T19:15:13.161Z,43.14
2019-06-08T19:17:50.338Z,43.31
2019-06-08T19:20:17.972Z,44.11
2019-06-08T19:22:54.094Z,44.82
2019-06-08T19:25:23.317Z,45.84
2019-06-08T19:27:57.773Z,47.34
2019-06-08T19:30:28.276Z,45.69
2019-06-08T19:32:59.137Z,44.49
2019-06-08T19:35:29.824Z,45.28
2019-06-08T19:38:01.378Z,45.23
2019-06-08T19:40:32.682Z,47.06
2019-06-08T19:43:03.705Z,47.62
2019-06-08T19:45:38.225Z,46.05
2019-06-08T19:48:08.551Z,45.38
2019-06-08T19:50:41.384Z,45.74
2019-06-08T19:53:12.657Z,46.98
2019-06-08T19:55:45.274Z,46.85
2019-06-08T19:58:18.017Z,47.67
2019-06-08T20:00:54.473Z,47.78
2019-06-08T20:03:21.552Z,47.42
2019-06-08T20:05:53.506Z,44.59
2019-06-08T20:08:24.914Z,47.32
2019-06-08T20:10:57.539Z,47.52
2019-06-08T20:13:28.641Z,49.96
2019-06-08T20:16:02.262Z,49.42
2019-06-08T20:18:32.355Z,49.76
2019-06-08T20:21:03.651Z,49.80
2019-06-08T20:23:34.439Z,49.61
2019-06-08T20:26:05.360Z,49.66
2019-06-08T20:28:37.937Z,50.86
2019-06-08T20:31:09.381Z,50.41
2019-06-08T20:33:41.314Z,50.95
2019-06-08T20:36:13.057Z,50.64
2019-06-08T20:38:44.788Z,50.99
2019-06-08T20:41:18.453Z,50.43
2019-06-08T20:43:52.006Z,50.30
2019-06-08T20:46:21.591Z,50.88
2019-06-08T20:48:53.212Z,51.05
2019-06-08T20:51:24.055Z,50.90
2019-06-08T20:53:57.339Z,51.03
2019-06-08T20:56:28.458Z,50.55
2019-06-08T20:58:59.294Z,51.08
2019-06-08T21:01:30.095Z,51.64
2019-06-08T21:04:00.763Z,51.33
2019-06-08T21:06:31.836Z,51.50
2019-06-08T21:09:02.570Z,52.59
2019-06-08T21:11:35.104Z,51.66
2019-06-08T21:14:06.518Z,50.65
2019-06-08T21:16:38.330Z,51.68
2019-06-08T21:19:11.003Z,51.81
2019-06-08T21:21:42.113Z,51.71
2019-06-08T21:24:13.170Z,51.98
2019-06-08T21:26:46.175Z,51.36
2019-06-08T21:29:17.617Z,52.07
2019-06-08T21:31:51.532Z,51.60
2019-06-08T21:34:21.790Z,52.04
2019-06-08T21:36:54.570Z,52.57
2019-06-08T21:39:28.312Z,52.55
2019-06-08T21:42:02.918Z,52.13
2019-06-08T21:44:33.382Z,52.45
2019-06-08T21:47:07.999Z,52.30
2019-06-08T21:49:39.584Z,53.27
2019-06-08T21:52:10.993Z,51.77
2019-06-08T21:54:44.003Z,51.84
2019-06-08T21:57:14.790Z,52.40
2019-06-08T21:59:48.540Z,52.96
2019-06-08T22:02:18.297Z,51.93
2019-06-08T22:04:49.764Z,51.83
2019-06-08T22:07:20.649Z,51.72
2019-06-08T22:09:52.469Z,52.29
2019-06-08T22:12:23.149Z,53.05
2019-06-08T22:14:54.665Z,53.27
2019-06-08T22:17:27.754Z,53.30
2019-06-08T22:19:59.806Z,53.98
2019-06-08T22:22:30.338Z,53.40
2019-06-08T22:25:02.130Z,53.34
2019-06-08T22:27:32.799Z,53.56
2019-06-08T22:30:13.333Z,53.68
2019-06-08T22:32:38.716Z,53.90
2019-06-08T22:35:09.458Z,53.27
2019-06-08T22:37:40.125Z,53.18
2019-06-08T22:40:11.080Z,53.14
2019-06-08T22:42:43.325Z,53.07
2019-06-08T22:45:14.641Z,52.76
2019-06-08T22:47:47.630Z,52.85
2019-06-08T22:50:18.619Z,52.89
2019-06-08T22:52:49.243Z,53.11
2019-06-08T22:55:20.024Z,53.37
2019-06-08T22:57:50.792Z,53.52
2019-06-08T23:00:24.759Z,53.70
2019-06-08T23:02:54.959Z,54.55
2019-06-08T23:05:27.879Z,54.13
2019-06-08T23:08:02.542Z,54.06
2019-06-08T23:10:31.146Z,54.02
2019-06-08T23:13:02.836Z,53.86
2019-06-08T23:15:34.188Z,54.53
2019-06-08T23:18:06.617Z,54.39
2019-06-08T23:20:37.392Z,54.76
2019-06-08T23:23:08.972Z,54.56
2019-06-08T23:25:40.159Z,55.12
2019-06-08T23:28:10.977Z,55.50
2019-06-08T23:30:42.611Z,55.71
2019-06-08T23:33:13.290Z,55.89
2019-06-08T23:36:20.670Z,55.14
2019-06-08T23:38:17.340Z,55.62
2019-06-08T23:40:48.171Z,55.38
2019-06-08T23:43:18.934Z,55.50
2019-06-08T23:45:51.210Z,55.38
2019-06-08T23:48:21.909Z,55.39
2019-06-08T23:50:52.586Z,55.18
2019-06-08T23:53:23.276Z,54.90
2019-06-08T23:55:53.964Z,54.68
2019-06-08T23:58:24.718Z,54.87
